CSZ9089 ZSNJ-VMMC
Flight info
| Callsign | CSZ9089 |
|---|---|
| Flight time | 1h 29m |
| Altitude | 34100 |
| Route | TES61X TESIG A470 BEBEM/N0463F341 A470 DOTMI DCT SAMMI J101 SMT |
| Aircraft | B738/M-SDE2E3FGHIRWXY/LB1 |
Departure
| Time | 2026-04-20 13:16 |
|---|---|
| Airport | Nanjing Lukou International Airport (ZSNJ) |
Arrival
| Time | 2026-04-20 14:45 |
|---|---|
| Airport | Macau International Airport (VMMC) |
| Time | Latitude | Longitude | Altitude | Speed | Heading |
|---|---|---|---|---|---|
| 2026-04-20 12:39 | 31.73397 | 118.87680 | 57 ft | 0 kts | 328° |
| 2026-04-20 13:01 | 31.73383 | 118.87691 | 49 ft | 4 kts | 325° |
| 2026-04-20 13:01 | 31.73361 | 118.87710 | 51 ft | 4 kts | 319° |
| 2026-04-20 13:01 | 31.73342 | 118.87731 | 51 ft | 4 kts | 308° |
| 2026-04-20 13:01 | 31.73329 | 118.87758 | 55 ft | 4 kts | 276° |
| 2026-04-20 13:02 | 31.73331 | 118.87776 | 49 ft | 1 kts | 238° |
| 2026-04-20 13:02 | 31.73332 | 118.87779 | 49 ft | 0 kts | 238° |
| 2026-04-20 13:06 | 31.73324 | 118.87764 | 50 ft | 4 kts | 238° |
| 2026-04-20 13:06 | 31.73287 | 118.87743 | 52 ft | 9 kts | 171° |
| 2026-04-20 13:06 | 31.73217 | 118.87743 | 57 ft | 13 kts | 228° |
| 2026-04-20 13:07 | 31.73159 | 118.87638 | 56 ft | 18 kts | 238° |
| 2026-04-20 13:07 | 31.73087 | 118.87502 | 53 ft | 22 kts | 238° |
| 2026-04-20 13:07 | 31.73004 | 118.87346 | 51 ft | 23 kts | 238° |
| 2026-04-20 13:07 | 31.72922 | 118.87193 | 54 ft | 22 kts | 238° |
| 2026-04-20 13:08 | 31.72842 | 118.87044 | 54 ft | 21 kts | 238° |
| 2026-04-20 13:08 | 31.72764 | 118.86899 | 52 ft | 21 kts | 238° |
| 2026-04-20 13:08 | 31.72689 | 118.86759 | 57 ft | 20 kts | 237° |
| 2026-04-20 13:08 | 31.72631 | 118.86651 | 57 ft | 9 kts | 237° |
| 2026-04-20 13:09 | 31.72645 | 118.86587 | 56 ft | 9 kts | 319° |
| 2026-04-20 13:09 | 31.72696 | 118.86547 | 57 ft | 9 kts | 327° |
| 2026-04-20 13:09 | 31.72756 | 118.86503 | 55 ft | 12 kts | 327° |
| 2026-04-20 13:09 | 31.72834 | 118.86445 | 56 ft | 15 kts | 328° |
| 2026-04-20 13:10 | 31.72930 | 118.86375 | 52 ft | 18 kts | 328° |
| 2026-04-20 13:10 | 31.73042 | 118.86293 | 55 ft | 20 kts | 327° |
| 2026-04-20 13:10 | 31.73165 | 118.86202 | 52 ft | 22 kts | 328° |
| 2026-04-20 13:10 | 31.73300 | 118.86105 | 57 ft | 24 kts | 327° |
| 2026-04-20 13:11 | 31.73442 | 118.85997 | 53 ft | 25 kts | 328° |
| 2026-04-20 13:11 | 31.73594 | 118.85885 | 53 ft | 26 kts | 328° |
| 2026-04-20 13:11 | 31.73721 | 118.85793 | 56 ft | 11 kts | 328° |
| 2026-04-20 13:11 | 31.73750 | 118.85722 | 57 ft | 11 kts | 251° |
| 2026-04-20 13:12 | 31.73712 | 118.85648 | 52 ft | 10 kts | 237° |
| 2026-04-20 13:12 | 31.73669 | 118.85569 | 55 ft | 13 kts | 238° |
| 2026-04-20 13:12 | 31.73617 | 118.85469 | 55 ft | 16 kts | 237° |
| 2026-04-20 13:12 | 31.73551 | 118.85346 | 56 ft | 21 kts | 237° |
| 2026-04-20 13:13 | 31.73485 | 118.85224 | 52 ft | 26 kts | 237° |
| 2026-04-20 13:13 | 31.73377 | 118.85023 | 53 ft | 32 kts | 238° |
| 2026-04-20 13:13 | 31.73285 | 118.84849 | 54 ft | 17 kts | 238° |
| 2026-04-20 13:13 | 31.73231 | 118.84750 | 54 ft | 7 kts | 238° |
| 2026-04-20 13:14 | 31.73238 | 118.84695 | 57 ft | 7 kts | 308° |
| 2026-04-20 13:14 | 31.73278 | 118.84662 | 55 ft | 7 kts | 327° |
| 2026-04-20 13:14 | 31.73319 | 118.84631 | 57 ft | 7 kts | 327° |
| 2026-04-20 13:14 | 31.73368 | 118.84613 | 57 ft | 6 kts | 32° |
| 2026-04-20 13:15 | 31.73391 | 118.84652 | 58 ft | 6 kts | 57° |
| 2026-04-20 13:15 | 31.73446 | 118.84756 | 56 ft | 39 kts | 58° |
| 2026-04-20 13:15 | 31.73714 | 118.85253 | 53 ft | 102 kts | 58° |
| 2026-04-20 13:15 | 31.74186 | 118.86138 | 50 ft | 152 kts | 58° |
| 2026-04-20 13:16 | 31.74786 | 118.87274 | 448 ft | 164 kts | 58° |
| 2026-04-20 13:16 | 31.75382 | 118.88399 | 1179 ft | 159 kts | 58° |
| 2026-04-20 13:16 | 31.75973 | 118.89498 | 1861 ft | 160 kts | 59° |
| 2026-04-20 13:16 | 31.76568 | 118.90603 | 2508 ft | 167 kts | 59° |
| 2026-04-20 13:17 | 31.77199 | 118.91780 | 3080 ft | 173 kts | 59° |
| 2026-04-20 13:17 | 31.77870 | 118.93032 | 3483 ft | 193 kts | 58° |
| 2026-04-20 13:17 | 31.78626 | 118.94448 | 3662 ft | 214 kts | 58° |
| 2026-04-20 13:17 | 31.79459 | 118.96007 | 3902 ft | 233 kts | 57° |
| 2026-04-20 13:18 | 31.80177 | 118.97772 | 4281 ft | 247 kts | 81° |
| 2026-04-20 13:18 | 31.80009 | 118.99773 | 4926 ft | 252 kts | 114° |
| 2026-04-20 13:18 | 31.78967 | 119.01425 | 5453 ft | 257 kts | 146° |
| 2026-04-20 13:18 | 31.77351 | 119.02225 | 6177 ft | 253 kts | 176° |
| 2026-04-20 13:19 | 31.75629 | 119.01937 | 6769 ft | 253 kts | 206° |
| 2026-04-20 13:19 | 31.74079 | 119.00988 | 7476 ft | 251 kts | 212° |
| 2026-04-20 13:19 | 31.72574 | 118.99950 | 8177 ft | 252 kts | 213° |
| 2026-04-20 13:19 | 31.71051 | 118.98907 | 8859 ft | 254 kts | 213° |
| 2026-04-20 13:20 | 31.69496 | 118.97905 | 9546 ft | 258 kts | 204° |
| 2026-04-20 13:20 | 31.67694 | 118.97641 | 10123 ft | 272 kts | 174° |
| 2026-04-20 13:20 | 31.65901 | 118.98509 | 10341 ft | 298 kts | 148° |
| 2026-04-20 13:20 | 31.64169 | 119.00001 | 10510 ft | 320 kts | 146° |
| 2026-04-20 13:21 | 31.62331 | 119.01623 | 10655 ft | 341 kts | 146° |
| 2026-04-20 13:21 | 31.60369 | 119.03328 | 10789 ft | 361 kts | 146° |
| 2026-04-20 13:21 | 31.58301 | 119.05103 | 11008 ft | 375 kts | 146° |
| 2026-04-20 13:21 | 31.56184 | 119.06943 | 11500 ft | 381 kts | 145° |
| 2026-04-20 13:22 | 31.54057 | 119.08806 | 12112 ft | 383 kts | 145° |
| 2026-04-20 13:22 | 31.51916 | 119.10686 | 12707 ft | 386 kts | 145° |
| 2026-04-20 13:22 | 31.49749 | 119.12588 | 13267 ft | 391 kts | 145° |
| 2026-04-20 13:22 | 31.47562 | 119.14505 | 13844 ft | 395 kts | 145° |
| 2026-04-20 13:23 | 31.45352 | 119.16440 | 14389 ft | 398 kts | 145° |
| 2026-04-20 13:23 | 31.43128 | 119.18386 | 14958 ft | 400 kts | 146° |
| 2026-04-20 13:23 | 31.40898 | 119.20335 | 15606 ft | 400 kts | 146° |
| 2026-04-20 13:23 | 31.38662 | 119.22288 | 16161 ft | 403 kts | 146° |
| 2026-04-20 13:24 | 31.36404 | 119.24257 | 16674 ft | 407 kts | 146° |
| 2026-04-20 13:24 | 31.34125 | 119.26244 | 17194 ft | 410 kts | 146° |
| 2026-04-20 13:24 | 31.31831 | 119.28243 | 17721 ft | 413 kts | 146° |
| 2026-04-20 13:24 | 31.29517 | 119.30259 | 18243 ft | 416 kts | 147° |
| 2026-04-20 13:25 | 31.27191 | 119.32284 | 18694 ft | 419 kts | 147° |
| 2026-04-20 13:25 | 31.24841 | 119.34329 | 19101 ft | 423 kts | 147° |
| 2026-04-20 13:25 | 31.22474 | 119.36387 | 19532 ft | 425 kts | 147° |
| 2026-04-20 13:25 | 31.20091 | 119.38456 | 19934 ft | 429 kts | 147° |
| 2026-04-20 13:26 | 31.17691 | 119.40545 | 20346 ft | 432 kts | 147° |
| 2026-04-20 13:26 | 31.15280 | 119.42652 | 20747 ft | 435 kts | 147° |
| 2026-04-20 13:26 | 31.12846 | 119.44783 | 21137 ft | 438 kts | 147° |
| 2026-04-20 13:26 | 31.10401 | 119.46923 | 21527 ft | 441 kts | 148° |
| 2026-04-20 13:27 | 31.07940 | 119.49075 | 21924 ft | 443 kts | 148° |
| 2026-04-20 13:27 | 31.05465 | 119.51238 | 22291 ft | 446 kts | 148° |
| 2026-04-20 13:27 | 31.02971 | 119.53417 | 22651 ft | 449 kts | 148° |
| 2026-04-20 13:27 | 31.00493 | 119.55579 | 23024 ft | 451 kts | 148° |
| 2026-04-20 13:28 | 30.97942 | 119.57803 | 23421 ft | 453 kts | 148° |
| 2026-04-20 13:28 | 30.95444 | 119.59979 | 23747 ft | 456 kts | 148° |
| 2026-04-20 13:28 | 30.92900 | 119.62194 | 23985 ft | 459 kts | 148° |
| 2026-04-20 13:28 | 30.90334 | 119.64426 | 24252 ft | 461 kts | 148° |
| 2026-04-20 13:29 | 30.87758 | 119.66666 | 24519 ft | 464 kts | 148° |
| 2026-04-20 13:29 | 30.85166 | 119.68919 | 24772 ft | 466 kts | 148° |
| 2026-04-20 13:29 | 30.82558 | 119.71183 | 25028 ft | 469 kts | 148° |
| 2026-04-20 13:29 | 30.79937 | 119.73458 | 25266 ft | 471 kts | 149° |
| 2026-04-20 13:30 | 30.77304 | 119.75743 | 25490 ft | 474 kts | 149° |
| 2026-04-20 13:30 | 30.74657 | 119.78036 | 25738 ft | 476 kts | 149° |
| 2026-04-20 13:30 | 30.71994 | 119.80334 | 25963 ft | 478 kts | 149° |
| 2026-04-20 13:30 | 30.69312 | 119.82635 | 26201 ft | 480 kts | 149° |
| 2026-04-20 13:31 | 30.66620 | 119.84929 | 26429 ft | 481 kts | 149° |
| 2026-04-20 13:31 | 30.63912 | 119.87233 | 26675 ft | 483 kts | 149° |
| 2026-04-20 13:31 | 30.61201 | 119.89545 | 26910 ft | 485 kts | 149° |
| 2026-04-20 13:31 | 30.58487 | 119.91883 | 27126 ft | 487 kts | 148° |
| 2026-04-20 13:32 | 30.55795 | 119.94288 | 27324 ft | 490 kts | 148° |
| 2026-04-20 13:32 | 30.53095 | 119.96725 | 27527 ft | 492 kts | 148° |
| 2026-04-20 13:32 | 30.50385 | 119.99157 | 27721 ft | 494 kts | 148° |
| 2026-04-20 13:32 | 30.47485 | 120.01237 | 27702 ft | 484 kts | 165° |
| 2026-04-20 13:33 | 30.44289 | 120.02160 | 27739 ft | 467 kts | 181° |
| 2026-04-20 13:33 | 30.41099 | 120.02109 | 27751 ft | 453 kts | 193° |
| 2026-04-20 13:33 | 30.38059 | 120.01345 | 27724 ft | 440 kts | 205° |
| 2026-04-20 13:33 | 30.35327 | 119.99871 | 27738 ft | 429 kts | 214° |
| 2026-04-20 13:34 | 30.32751 | 119.98152 | 27729 ft | 427 kts | 215° |
| 2026-04-20 13:34 | 30.30199 | 119.96400 | 27728 ft | 426 kts | 215° |
| 2026-04-20 13:34 | 30.27645 | 119.94649 | 27728 ft | 427 kts | 215° |
| 2026-04-20 13:34 | 30.25084 | 119.92912 | 27733 ft | 428 kts | 214° |
| 2026-04-20 13:35 | 30.22504 | 119.91182 | 27733 ft | 429 kts | 214° |
| 2026-04-20 13:35 | 30.19917 | 119.89461 | 27715 ft | 430 kts | 214° |
| 2026-04-20 13:35 | 30.17318 | 119.87739 | 27727 ft | 430 kts | 214° |
| 2026-04-20 13:35 | 30.14719 | 119.86022 | 27733 ft | 431 kts | 214° |
| 2026-04-20 13:36 | 30.12107 | 119.84301 | 27735 ft | 432 kts | 214° |
| 2026-04-20 13:36 | 30.09497 | 119.82574 | 27738 ft | 433 kts | 214° |
| 2026-04-20 13:36 | 30.06879 | 119.80842 | 27736 ft | 435 kts | 214° |
| 2026-04-20 13:36 | 30.04251 | 119.79108 | 27695 ft | 435 kts | 214° |
| 2026-04-20 13:37 | 30.01629 | 119.77358 | 27739 ft | 435 kts | 214° |
| 2026-04-20 13:37 | 29.99014 | 119.75592 | 27714 ft | 436 kts | 214° |
| 2026-04-20 13:37 | 29.96425 | 119.73840 | 27706 ft | 437 kts | 214° |
| 2026-04-20 13:37 | 29.93803 | 119.72078 | 27719 ft | 437 kts | 214° |
| 2026-04-20 13:38 | 29.91178 | 119.70313 | 27734 ft | 436 kts | 214° |
| 2026-04-20 13:38 | 29.88534 | 119.68581 | 27710 ft | 439 kts | 211° |
| 2026-04-20 13:38 | 29.85687 | 119.67259 | 27715 ft | 445 kts | 202° |
| 2026-04-20 13:38 | 29.82657 | 119.66406 | 27700 ft | 451 kts | 194° |
| 2026-04-20 13:39 | 29.79515 | 119.66059 | 27718 ft | 457 kts | 187° |
| 2026-04-20 13:39 | 29.76334 | 119.65946 | 27708 ft | 457 kts | 187° |
| 2026-04-20 13:39 | 29.73159 | 119.65813 | 27705 ft | 456 kts | 188° |
| 2026-04-20 13:39 | 29.69994 | 119.65607 | 27716 ft | 455 kts | 189° |
| 2026-04-20 13:40 | 29.66837 | 119.65380 | 27700 ft | 455 kts | 189° |
| 2026-04-20 13:40 | 29.63678 | 119.65159 | 27701 ft | 455 kts | 188° |
| 2026-04-20 13:40 | 29.60516 | 119.64986 | 27697 ft | 455 kts | 187° |
| 2026-04-20 13:40 | 29.58419 | 119.64935 | 27677 ft | 456 kts | 186° |
| 2026-04-20 13:41 | 29.55253 | 119.64880 | 27687 ft | 455 kts | 186° |
| 2026-04-20 13:41 | 29.52091 | 119.64807 | 27678 ft | 453 kts | 187° |
| 2026-04-20 13:41 | 29.48956 | 119.64635 | 27673 ft | 451 kts | 188° |
| 2026-04-20 13:41 | 29.45830 | 119.64410 | 27687 ft | 449 kts | 189° |
| 2026-04-20 13:42 | 29.42709 | 119.64180 | 27684 ft | 449 kts | 188° |
| 2026-04-20 13:42 | 29.36481 | 119.63750 | 27684 ft | 448 kts | 188° |
| 2026-04-20 13:42 | 29.33371 | 119.63548 | 27664 ft | 448 kts | 188° |
| 2026-04-20 13:43 | 29.30257 | 119.63351 | 27671 ft | 448 kts | 188° |
| 2026-04-20 13:43 | 29.27147 | 119.63157 | 27673 ft | 448 kts | 188° |
| 2026-04-20 13:43 | 29.24031 | 119.62963 | 27669 ft | 449 kts | 188° |
| 2026-04-20 13:43 | 29.20909 | 119.62767 | 27677 ft | 449 kts | 188° |
| 2026-04-20 13:44 | 29.17785 | 119.62573 | 27685 ft | 450 kts | 188° |
| 2026-04-20 13:44 | 29.14658 | 119.62378 | 27671 ft | 451 kts | 188° |
| 2026-04-20 13:44 | 29.11520 | 119.62182 | 27671 ft | 452 kts | 188° |
| 2026-04-20 13:44 | 29.08380 | 119.61986 | 27653 ft | 452 kts | 188° |
| 2026-04-20 13:45 | 29.05232 | 119.61789 | 27680 ft | 455 kts | 188° |
| 2026-04-20 13:45 | 29.02059 | 119.61590 | 27859 ft | 457 kts | 188° |
| 2026-04-20 13:45 | 28.98880 | 119.61392 | 28156 ft | 457 kts | 188° |
| 2026-04-20 13:45 | 28.95704 | 119.61195 | 28433 ft | 458 kts | 188° |
| 2026-04-20 13:46 | 28.92515 | 119.60996 | 28675 ft | 459 kts | 188° |
| 2026-04-20 13:46 | 28.89332 | 119.60798 | 28982 ft | 458 kts | 188° |
| 2026-04-20 13:46 | 28.86155 | 119.60603 | 29297 ft | 457 kts | 188° |
| 2026-04-20 13:46 | 28.82979 | 119.60410 | 29601 ft | 456 kts | 188° |
| 2026-04-20 13:47 | 28.79813 | 119.60212 | 29884 ft | 456 kts | 188° |
| 2026-04-20 13:47 | 28.76642 | 119.60015 | 30106 ft | 456 kts | 188° |
| 2026-04-20 13:47 | 28.73515 | 119.59817 | 30365 ft | 456 kts | 188° |
| 2026-04-20 13:47 | 28.70357 | 119.59619 | 30677 ft | 454 kts | 188° |
| 2026-04-20 13:48 | 28.67203 | 119.59425 | 30965 ft | 454 kts | 188° |
| 2026-04-20 13:48 | 28.64051 | 119.59230 | 31223 ft | 454 kts | 188° |
| 2026-04-20 13:48 | 28.60902 | 119.59035 | 31486 ft | 453 kts | 188° |
| 2026-04-20 13:48 | 28.57752 | 119.58840 | 31719 ft | 453 kts | 187° |
| 2026-04-20 13:49 | 28.54611 | 119.58646 | 32065 ft | 451 kts | 187° |
| 2026-04-20 13:49 | 28.51485 | 119.58452 | 32388 ft | 449 kts | 187° |
| 2026-04-20 13:49 | 28.48364 | 119.58259 | 32647 ft | 450 kts | 187° |
| 2026-04-20 13:49 | 28.45231 | 119.58066 | 32902 ft | 450 kts | 187° |
| 2026-04-20 13:50 | 28.42106 | 119.57889 | 33202 ft | 450 kts | 187° |
| 2026-04-20 13:50 | 28.38988 | 119.57724 | 33511 ft | 448 kts | 187° |
| 2026-04-20 13:50 | 28.35876 | 119.57563 | 33795 ft | 448 kts | 187° |
| 2026-04-20 13:50 | 28.32762 | 119.57401 | 34038 ft | 448 kts | 187° |
| 2026-04-20 13:51 | 28.29640 | 119.57236 | 34165 ft | 450 kts | 187° |
| 2026-04-20 13:51 | 28.26503 | 119.57068 | 34161 ft | 453 kts | 187° |
| 2026-04-20 13:51 | 28.20230 | 119.56734 | 34167 ft | 449 kts | 187° |
| 2026-04-20 13:52 | 28.14009 | 119.56403 | 34166 ft | 446 kts | 187° |
| 2026-04-20 13:52 | 28.07824 | 119.56105 | 34159 ft | 444 kts | 186° |
| 2026-04-20 13:53 | 28.01598 | 119.56027 | 34161 ft | 451 kts | 185° |
| 2026-04-20 13:53 | 27.95286 | 119.55954 | 34181 ft | 455 kts | 185° |
| 2026-04-20 13:54 | 27.88933 | 119.55862 | 34187 ft | 458 kts | 185° |
| 2026-04-20 13:54 | 27.82554 | 119.55825 | 34163 ft | 456 kts | 185° |
| 2026-04-20 13:55 | 27.76308 | 119.55800 | 34173 ft | 450 kts | 185° |
| 2026-04-20 13:55 | 27.70061 | 119.55764 | 34170 ft | 448 kts | 185° |
| 2026-04-20 13:56 | 27.63842 | 119.55725 | 34184 ft | 447 kts | 185° |
| 2026-04-20 13:56 | 27.57623 | 119.55686 | 34190 ft | 447 kts | 185° |
| 2026-04-20 13:57 | 27.51393 | 119.55644 | 34180 ft | 448 kts | 185° |
| 2026-04-20 13:57 | 27.45149 | 119.55609 | 34185 ft | 450 kts | 185° |
| 2026-04-20 13:58 | 27.38879 | 119.55591 | 34182 ft | 451 kts | 184° |
| 2026-04-20 13:58 | 27.32591 | 119.55599 | 34185 ft | 452 kts | 184° |
| 2026-04-20 13:59 | 27.26288 | 119.55600 | 34170 ft | 453 kts | 184° |
| 2026-04-20 13:59 | 27.19989 | 119.55573 | 34165 ft | 453 kts | 185° |
| 2026-04-20 14:00 | 27.13698 | 119.55521 | 34166 ft | 452 kts | 185° |
| 2026-04-20 14:00 | 27.07419 | 119.55473 | 34175 ft | 451 kts | 185° |
| 2026-04-20 14:01 | 27.01157 | 119.55428 | 34162 ft | 449 kts | 184° |
| 2026-04-20 14:01 | 26.87332 | 119.55332 | 34191 ft | 448 kts | 184° |
| 2026-04-20 14:02 | 26.62385 | 119.55162 | 34158 ft | 447 kts | 184° |
| 2026-04-20 14:02 | 26.39301 | 119.55003 | 34138 ft | 450 kts | 184° |
| 2026-04-20 14:03 | 26.23481 | 119.54783 | 34147 ft | 460 kts | 187° |
| 2026-04-20 14:03 | 26.13860 | 119.52101 | 34122 ft | 437 kts | 201° |
| 2026-04-20 14:04 | 26.02959 | 119.48314 | 34117 ft | 437 kts | 200° |
| 2026-04-20 14:04 | 25.86539 | 119.42744 | 34157 ft | 453 kts | 200° |
| 2026-04-20 14:05 | 25.75530 | 119.38563 | 34135 ft | 438 kts | 212° |
| 2026-04-20 14:05 | 25.70676 | 119.34676 | 34138 ft | 429 kts | 226° |
| 2026-04-20 14:06 | 25.58820 | 119.20638 | 34131 ft | 435 kts | 228° |
| 2026-04-20 14:06 | 25.50553 | 119.10967 | 34161 ft | 438 kts | 228° |
| 2026-04-20 14:07 | 25.37902 | 118.96122 | 34158 ft | 439 kts | 228° |
| 2026-04-20 14:07 | 25.28023 | 118.84390 | 34146 ft | 427 kts | 229° |
| 2026-04-20 14:08 | 25.12149 | 118.65225 | 34149 ft | 422 kts | 229° |
| 2026-04-20 14:08 | 24.99733 | 118.50781 | 34112 ft | 435 kts | 228° |
| 2026-04-20 14:09 | 24.82890 | 118.31587 | 34090 ft | 431 kts | 228° |
| 2026-04-20 14:09 | 24.69693 | 118.16554 | 34048 ft | 416 kts | 228° |
| 2026-04-20 14:10 | 24.56615 | 118.01632 | 34125 ft | 416 kts | 228° |
| 2026-04-20 14:10 | 24.42325 | 117.84381 | 34118 ft | 434 kts | 230° |
| 2026-04-20 14:11 | 24.26134 | 117.64901 | 34060 ft | 427 kts | 229° |
| 2026-04-20 14:11 | 24.13634 | 117.49932 | 34085 ft | 419 kts | 227° |
| 2026-04-20 14:12 | 24.07226 | 117.43607 | 34202 ft | 428 kts | 224° |
| 2026-04-20 14:12 | 23.98240 | 117.34847 | 34147 ft | 436 kts | 224° |
| 2026-04-20 14:12 | 23.80203 | 117.17211 | 34095 ft | 431 kts | 224° |
| 2026-04-20 14:13 | 23.68420 | 117.04497 | 34080 ft | 421 kts | 228° |
| 2026-04-20 14:13 | 23.52261 | 116.86054 | 34155 ft | 423 kts | 228° |
| 2026-04-20 14:14 | 23.42872 | 116.75645 | 34093 ft | 428 kts | 221° |
| 2026-04-20 14:14 | 23.25220 | 116.61112 | 34105 ft | 434 kts | 219° |
| 2026-04-20 14:15 | 23.05913 | 116.45110 | 34101 ft | 438 kts | 219° |
| 2026-04-20 14:15 | 22.91151 | 116.32908 | 34080 ft | 433 kts | 219° |
| 2026-04-20 14:16 | 22.72681 | 116.17533 | 34082 ft | 419 kts | 219° |
| 2026-04-20 14:16 | 22.58039 | 116.05496 | 34132 ft | 438 kts | 219° |
| 2026-04-20 14:17 | 22.48565 | 115.97042 | 34082 ft | 430 kts | 237° |
| 2026-04-20 14:17 | 22.47178 | 115.94218 | 34077 ft | 425 kts | 248° |
| 2026-04-20 14:17 | 22.46338 | 115.91204 | 34089 ft | 425 kts | 260° |
| 2026-04-20 14:18 | 22.45233 | 115.71791 | 34090 ft | 431 kts | 265° |
| 2026-04-20 14:18 | 22.43622 | 115.45784 | 34097 ft | 436 kts | 264° |
| 2026-04-20 14:19 | 22.42602 | 115.29578 | 34092 ft | 438 kts | 264° |
| 2026-04-20 14:19 | 22.42183 | 115.23020 | 34079 ft | 437 kts | 264° |
| 2026-04-20 14:20 | 22.41763 | 115.16470 | 34078 ft | 436 kts | 264° |
| 2026-04-20 14:20 | 22.41341 | 115.09938 | 34077 ft | 435 kts | 264° |
| 2026-04-20 14:21 | 22.40919 | 115.03430 | 34079 ft | 434 kts | 264° |
| 2026-04-20 14:21 | 22.40492 | 114.96911 | 33567 ft | 439 kts | 264° |
| 2026-04-20 14:22 | 22.40277 | 114.93631 | 32954 ft | 436 kts | 264° |
| 2026-04-20 14:22 | 22.40058 | 114.90321 | 32378 ft | 446 kts | 264° |
| 2026-04-20 14:22 | 22.39835 | 114.86951 | 31900 ft | 453 kts | 264° |
| 2026-04-20 14:22 | 22.39609 | 114.83539 | 31596 ft | 455 kts | 264° |
| 2026-04-20 14:23 | 22.39161 | 114.76786 | 31576 ft | 447 kts | 264° |
| 2026-04-20 14:23 | 22.38716 | 114.70139 | 31536 ft | 441 kts | 264° |
| 2026-04-20 14:24 | 22.38274 | 114.63575 | 31491 ft | 435 kts | 265° |
| 2026-04-20 14:24 | 22.37835 | 114.57090 | 31463 ft | 431 kts | 265° |
| 2026-04-20 14:25 | 22.37399 | 114.50665 | 31421 ft | 427 kts | 264° |
| 2026-04-20 14:25 | 22.36963 | 114.44284 | 31273 ft | 426 kts | 265° |
| 2026-04-20 14:26 | 22.36532 | 114.37892 | 31134 ft | 426 kts | 265° |
| 2026-04-20 14:26 | 22.36101 | 114.31519 | 31003 ft | 425 kts | 265° |
| 2026-04-20 14:27 | 22.35884 | 114.28336 | 30782 ft | 426 kts | 265° |
| 2026-04-20 14:27 | 22.35665 | 114.25137 | 30202 ft | 427 kts | 265° |
| 2026-04-20 14:27 | 22.35445 | 114.21935 | 29421 ft | 428 kts | 265° |
| 2026-04-20 14:27 | 22.35225 | 114.18736 | 28650 ft | 428 kts | 265° |
| 2026-04-20 14:28 | 22.35006 | 114.15559 | 27902 ft | 429 kts | 265° |
| 2026-04-20 14:28 | 22.34784 | 114.12350 | 27174 ft | 429 kts | 265° |
| 2026-04-20 14:28 | 22.34636 | 114.10205 | 26672 ft | 424 kts | 265° |
| 2026-04-20 14:28 | 22.34349 | 114.06055 | 25734 ft | 413 kts | 265° |
| 2026-04-20 14:29 | 22.34136 | 114.03000 | 25047 ft | 404 kts | 265° |
| 2026-04-20 14:29 | 22.33927 | 114.00005 | 24375 ft | 396 kts | 265° |
| 2026-04-20 14:29 | 22.33766 | 113.98016 | 23927 ft | 391 kts | 262° |
| 2026-04-20 14:29 | 22.32977 | 113.95252 | 23181 ft | 385 kts | 239° |
| 2026-04-20 14:30 | 22.31271 | 113.93057 | 22434 ft | 381 kts | 225° |
| 2026-04-20 14:30 | 22.29249 | 113.91232 | 21706 ft | 377 kts | 221° |
| 2026-04-20 14:30 | 22.27197 | 113.89498 | 20977 ft | 373 kts | 220° |
| 2026-04-20 14:30 | 22.25158 | 113.87787 | 20266 ft | 369 kts | 220° |
| 2026-04-20 14:31 | 22.23207 | 113.86139 | 19581 ft | 366 kts | 220° |
| 2026-04-20 14:31 | 22.21378 | 113.84585 | 18952 ft | 363 kts | 220° |
| 2026-04-20 14:31 | 22.19419 | 113.82909 | 18278 ft | 361 kts | 220° |
| 2026-04-20 14:31 | 22.17463 | 113.81227 | 17518 ft | 358 kts | 220° |
| 2026-04-20 14:32 | 22.15526 | 113.79557 | 16777 ft | 355 kts | 220° |
| 2026-04-20 14:32 | 22.13602 | 113.77897 | 16045 ft | 353 kts | 221° |
| 2026-04-20 14:32 | 22.11693 | 113.76249 | 15331 ft | 350 kts | 221° |
| 2026-04-20 14:32 | 22.10079 | 113.74856 | 14737 ft | 348 kts | 221° |
| 2026-04-20 14:33 | 22.08483 | 113.73479 | 14151 ft | 345 kts | 221° |
| 2026-04-20 14:33 | 22.06616 | 113.71871 | 13437 ft | 342 kts | 221° |
| 2026-04-20 14:33 | 22.04764 | 113.70276 | 12684 ft | 339 kts | 221° |
| 2026-04-20 14:33 | 22.03177 | 113.68439 | 11921 ft | 334 kts | 240° |
| 2026-04-20 14:34 | 22.02277 | 113.66167 | 11215 ft | 329 kts | 257° |
| 2026-04-20 14:34 | 22.02135 | 113.63940 | 10554 ft | 328 kts | 279° |
| 2026-04-20 14:34 | 22.03015 | 113.61685 | 9880 ft | 329 kts | 303° |
| 2026-04-20 14:34 | 22.04535 | 113.59850 | 9133 ft | 330 kts | 318° |
| 2026-04-20 14:35 | 22.06408 | 113.58420 | 8406 ft | 330 kts | 325° |
| 2026-04-20 14:35 | 22.08345 | 113.57091 | 7680 ft | 330 kts | 325° |
| 2026-04-20 14:35 | 22.10265 | 113.55746 | 6968 ft | 329 kts | 324° |
| 2026-04-20 14:35 | 22.12161 | 113.54379 | 6407 ft | 324 kts | 323° |
| 2026-04-20 14:36 | 22.13958 | 113.53011 | 6206 ft | 307 kts | 322° |
| 2026-04-20 14:36 | 22.15644 | 113.51706 | 6057 ft | 290 kts | 322° |
| 2026-04-20 14:36 | 22.17243 | 113.50470 | 5925 ft | 276 kts | 322° |
| 2026-04-20 14:36 | 22.18771 | 113.49291 | 5909 ft | 265 kts | 322° |
| 2026-04-20 14:37 | 22.20242 | 113.48159 | 5893 ft | 255 kts | 323° |
| 2026-04-20 14:37 | 22.21870 | 113.47400 | 5888 ft | 264 kts | 353° |
| 2026-04-20 14:37 | 22.23752 | 113.47682 | 5736 ft | 284 kts | 25° |
| 2026-04-20 14:37 | 22.25467 | 113.48773 | 5496 ft | 288 kts | 34° |
| 2026-04-20 14:38 | 22.27125 | 113.49942 | 5248 ft | 291 kts | 34° |
| 2026-04-20 14:38 | 22.28832 | 113.51137 | 5021 ft | 295 kts | 34° |
| 2026-04-20 14:38 | 22.30574 | 113.52334 | 4780 ft | 299 kts | 33° |
| 2026-04-20 14:38 | 22.32369 | 113.53553 | 4518 ft | 302 kts | 33° |
| 2026-04-20 14:39 | 22.34139 | 113.54753 | 4241 ft | 295 kts | 34° |
| 2026-04-20 14:39 | 22.35535 | 113.56272 | 3980 ft | 280 kts | 63° |
| 2026-04-20 14:39 | 22.36267 | 113.58139 | 3767 ft | 263 kts | 81° |
| 2026-04-20 14:39 | 22.36264 | 113.60025 | 3533 ft | 244 kts | 114° |
| 2026-04-20 14:40 | 22.35362 | 113.61432 | 3370 ft | 225 kts | 141° |
| 2026-04-20 14:40 | 22.34105 | 113.62317 | 3212 ft | 208 kts | 159° |
| 2026-04-20 14:40 | 22.32789 | 113.62802 | 3057 ft | 192 kts | 165° |
| 2026-04-20 14:40 | 22.31544 | 113.63179 | 3019 ft | 182 kts | 165° |
| 2026-04-20 14:41 | 22.30326 | 113.63551 | 2922 ft | 184 kts | 165° |
| 2026-04-20 14:41 | 22.29090 | 113.63922 | 2716 ft | 182 kts | 167° |
| 2026-04-20 14:41 | 22.27858 | 113.64091 | 2509 ft | 175 kts | 183° |
| 2026-04-20 14:41 | 22.26713 | 113.63811 | 2332 ft | 165 kts | 198° |
| 2026-04-20 14:42 | 22.25933 | 113.63382 | 2167 ft | 155 kts | 211° |
| 2026-04-20 14:42 | 22.25133 | 113.62655 | 1957 ft | 154 kts | 223° |
| 2026-04-20 14:42 | 22.24495 | 113.61745 | 1779 ft | 150 kts | 229° |
| 2026-04-20 14:42 | 22.23867 | 113.60845 | 1618 ft | 152 kts | 230° |
| 2026-04-20 14:43 | 22.23227 | 113.59932 | 1464 ft | 153 kts | 229° |
| 2026-04-20 14:43 | 22.22581 | 113.59026 | 1320 ft | 152 kts | 228° |
| 2026-04-20 14:43 | 22.21880 | 113.58169 | 1137 ft | 153 kts | 214° |
| 2026-04-20 14:43 | 22.20928 | 113.57684 | 903 ft | 151 kts | 193° |
| 2026-04-20 14:44 | 22.19913 | 113.57516 | 747 ft | 146 kts | 182° |
| 2026-04-20 14:44 | 22.18919 | 113.57667 | 574 ft | 147 kts | 158° |
| 2026-04-20 14:44 | 22.17960 | 113.58030 | 457 ft | 147 kts | 161° |
| 2026-04-20 14:44 | 22.16988 | 113.58396 | 279 ft | 149 kts | 161° |
| 2026-04-20 14:45 | 22.16011 | 113.58751 | 83 ft | 146 kts | 161° |
| 2026-04-20 14:45 | 22.15108 | 113.59083 | 28 ft | 118 kts | 161° |
| 2026-04-20 14:45 | 22.14532 | 113.59295 | 27 ft | 57 kts | 161° |
| 2026-04-20 14:45 | 22.14321 | 113.59373 | 27 ft | 22 kts | 161° |
| 2026-04-20 14:46 | 22.14191 | 113.59401 | 28 ft | 17 kts | 198° |
| 2026-04-20 14:46 | 22.14136 | 113.59302 | 28 ft | 13 kts | 251° |
| 2026-04-20 14:46 | 22.14157 | 113.59249 | 28 ft | 8 kts | 330° |
| 2026-04-20 14:46 | 22.14212 | 113.59226 | 27 ft | 10 kts | 340° |
| 2026-04-20 14:47 | 22.14275 | 113.59202 | 27 ft | 10 kts | 342° |
| 2026-04-20 14:47 | 22.14339 | 113.59180 | 27 ft | 10 kts | 341° |
| 2026-04-20 14:47 | 22.14412 | 113.59153 | 27 ft | 12 kts | 341° |
| 2026-04-20 14:48 | 22.14602 | 113.59082 | 27 ft | 17 kts | 341° |
| 2026-04-20 14:48 | 22.14712 | 113.59040 | 28 ft | 17 kts | 334° |
| 2026-04-20 14:48 | 22.14785 | 113.58942 | 28 ft | 18 kts | 305° |
| 2026-04-20 14:48 | 22.14858 | 113.58829 | 28 ft | 19 kts | 305° |
| 2026-04-20 14:49 | 22.14937 | 113.58707 | 28 ft | 21 kts | 303° |
| 2026-04-20 14:49 | 22.15012 | 113.58578 | 28 ft | 20 kts | 302° |
| 2026-04-20 14:49 | 22.15089 | 113.58454 | 28 ft | 20 kts | 304° |
| 2026-04-20 14:49 | 22.15169 | 113.58322 | 28 ft | 22 kts | 304° |
| 2026-04-20 14:50 | 22.15256 | 113.58183 | 28 ft | 23 kts | 303° |
| 2026-04-20 14:50 | 22.15346 | 113.58035 | 28 ft | 24 kts | 303° |
| 2026-04-20 14:50 | 22.15439 | 113.57887 | 28 ft | 23 kts | 303° |
| 2026-04-20 14:50 | 22.15525 | 113.57747 | 28 ft | 22 kts | 304° |
| 2026-04-20 14:51 | 22.15597 | 113.57631 | 28 ft | 15 kts | 303° |
| 2026-04-20 14:51 | 22.15611 | 113.57558 | 28 ft | 9 kts | 240° |
| 2026-04-20 14:51 | 22.15572 | 113.57503 | 28 ft | 9 kts | 237° |
| 2026-04-20 14:51 | 22.15540 | 113.57444 | 28 ft | 9 kts | 242° |
| 2026-04-20 14:52 | 22.15512 | 113.57388 | 28 ft | 8 kts | 242° |
| 2026-04-20 14:52 | 22.15521 | 113.57340 | 28 ft | 7 kts | 330° |
| 2026-04-20 14:52 | 22.15556 | 113.57318 | 28 ft | 1 kts | 332° |
| 2026-04-20 14:52 | 22.15562 | 113.57315 | 28 ft | 0 kts | 332° |